Terminal Aerodrome Forecast
Issued by NWS Twin Cities, MN

Home | Current Version | Previous Version | Text Only | Print | Product List | Glossary Off
Versions: 1 2 3 4 5 6 7 8 9 10 11 12 13 14 15 16 17 18 19 20 21 22 23 24 25 26 27 28

000
FTUS43 KMPX 210600 AAA
TAFMSP
TAF AMD
KMSP 210637Z 2107/2212 09004KT P6SM VCSH SCT060 BKN100
      TEMPO 2107/2109 5SM -TSRA BKN050CB OVC090
     FM211130 31009KT P6SM BKN120
     FM211500 32016G24KT P6SM SKC
     FM220100 33010KT P6SM SKC=

USA.gov is the U.S. government's official web portal to all federal, state and local government web resources and services.